Ana Sayfa
METAR-TAF:

METAR-TAF

Havaalanları :

Evelyn Sharp Field

Ord, Nebraska, Amerika Birleşik Devletleri

Enlem: 41-37-27N, Boylam: 098-57-09W, yükseklik: 631 m

Güncel hava durumu gözlemi

Rapor saat 05:05 UTC de 14 dakika önce yapıldı.
Rüzgar kuzeydan 18 kt ve 26 kt'a kadar ani rüzgarlar
Sıcaklık 6°C
Nem 81%
Basınç 1018 hPa
Görüş mesafesi: 12.9 km
1400 ft yükseklikte parçalı bulutlu
3000 ft yükseklikte parçalı çok bulutlu
8000 ft yükseklikte çok bulutlu
civarda gök gürültülü fırtına, hafif yağmur

METAR: KODX 180505Z AUTO 35018G26KT 8SM VCTS -RA SCT014 BKN030 OVC080 06/03 A3006 RMK AO2 PK WND 36031/0455 LTG DSNT NE AND NW P0001 T00610033

Saat: 00:19 (05:19 UTC)


TAF: eksik

4.000'den fazla havaalanı için hava durumu gözlemleri ve tahminleri (METAR ve TAF raporları).

Kullanılabilir istasyonlar harita üzerinde sarı ve kırmızı noktalarla gösterilir.

İstasyonun adını görmek için fareyi noktanın üzerinde gezdirin.

Sonrasında hava gözlem ve tahminlerini görmek için tıklayın.

Haritayı değiştirmek için: yaklaştırmak için siyah artı işaretli yeşil düğmeye ve uzaklaştırmak için de eksi işaretli düğmeye hızla tıklayın; bitişik haritalar için yeşil okları kullanın.


METAR-TAF: